createdAt,value
2019-02-05T00:01:45.948Z,14.70
2019-02-05T00:04:12.573Z,14.70
2019-02-05T00:06:39.261Z,14.70
2019-02-05T00:09:05.842Z,14.70
2019-02-05T00:11:32.671Z,14.70
2019-02-05T00:13:59.252Z,14.80
2019-02-05T00:16:25.829Z,14.70
2019-02-05T00:18:52.461Z,14.70
2019-02-05T00:21:19.117Z,14.80
2019-02-05T00:23:45.701Z,14.70
2019-02-05T00:26:12.539Z,14.80
2019-02-05T00:28:39.124Z,14.80
2019-02-05T00:31:05.778Z,14.70
2019-02-05T00:33:32.705Z,14.70
2019-02-05T00:35:59.291Z,14.70
2019-02-05T00:38:26.460Z,14.70
2019-02-05T00:40:53.096Z,14.60
2019-02-05T00:43:19.684Z,14.70
2019-02-05T00:45:46.423Z,14.70
2019-02-05T00:48:13.045Z,14.60
2019-02-05T00:50:41.631Z,14.70
2019-02-05T00:53:07.931Z,14.60
2019-02-05T00:55:34.558Z,14.60
2019-02-05T00:58:01.536Z,14.60
2019-02-05T01:00:28.146Z,14.60
2019-02-05T01:02:54.761Z,14.60
2019-02-05T01:05:21.336Z,14.60
2019-02-05T01:07:47.927Z,14.60
2019-02-05T01:10:14.736Z,14.60
2019-02-05T01:12:41.327Z,14.60
2019-02-05T01:15:08.713Z,14.70
2019-02-05T01:17:35.343Z,14.60
2019-02-05T01:20:01.922Z,14.60
2019-02-05T01:22:28.608Z,14.50
2019-02-05T01:24:55.250Z,14.60
2019-02-05T01:27:21.892Z,14.50
2019-02-05T01:29:48.471Z,14.50
2019-02-05T01:32:15.421Z,14.60
2019-02-05T01:34:42.283Z,14.60
2019-02-05T01:37:09.066Z,14.50
2019-02-05T01:39:35.694Z,14.50
2019-02-05T01:42:02.277Z,14.50
2019-02-05T01:44:28.935Z,14.50
2019-02-05T01:46:55.558Z,14.50
2019-02-05T01:49:22.192Z,14.50
2019-02-05T01:51:48.806Z,14.40
2019-02-05T01:54:15.778Z,14.50
2019-02-05T01:56:42.579Z,14.40
2019-02-05T01:59:09.190Z,14.50
2019-02-05T02:01:35.865Z,14.40
2019-02-05T02:04:02.448Z,14.50
2019-02-05T02:06:29.034Z,14.50
2019-02-05T02:08:55.660Z,14.50
2019-02-05T02:11:22.824Z,14.50
2019-02-05T02:13:49.408Z,14.50
2019-02-05T02:16:16.149Z,14.40
2019-02-05T02:18:42.742Z,14.40
2019-02-05T02:21:09.316Z,14.40
2019-02-05T02:23:35.949Z,14.30
2019-02-05T02:26:02.596Z,14.50
2019-02-05T02:28:29.223Z,14.40
2019-02-05T02:30:56.326Z,14.30
2019-02-05T02:33:22.916Z,14.30
2019-02-05T02:35:49.491Z,14.30
2019-02-05T02:38:16.192Z,14.50
2019-02-05T02:40:42.778Z,14.40
2019-02-05T02:43:09.354Z,14.40
2019-02-05T02:45:36.069Z,14.30
2019-02-05T02:48:02.913Z,14.30
2019-02-05T02:50:29.769Z,14.40
2019-02-05T02:52:56.407Z,14.30
2019-02-05T02:55:22.983Z,14.30
2019-02-05T02:57:49.562Z,14.90
2019-02-05T03:00:16.260Z,14.40
2019-02-05T03:02:42.894Z,14.40
2019-02-05T03:05:09.556Z,14.30
2019-02-05T03:07:36.460Z,14.30
2019-02-05T03:10:03.331Z,14.30
2019-02-05T03:12:29.908Z,14.30
2019-02-05T03:14:56.527Z,14.30
2019-02-05T03:17:23.115Z,14.30
2019-02-05T03:19:49.738Z,14.20
2019-02-05T03:22:16.609Z,14.30
2019-02-05T03:24:43.275Z,14.20
2019-02-05T03:27:17.238Z,13.80
2019-02-05T03:29:38.402Z,14.30
2019-02-05T03:32:04.985Z,14.20
2019-02-05T03:34:31.737Z,14.30
2019-02-05T03:36:58.576Z,14.30
2019-02-05T03:39:25.163Z,14.30
2019-02-05T03:41:51.807Z,14.30
2019-02-05T03:44:18.466Z,14.30
2019-02-05T03:46:45.132Z,14.30
2019-02-05T03:49:11.712Z,14.20
2019-02-05T03:51:38.516Z,14.30
2019-02-05T03:54:05.102Z,14.30
2019-02-05T03:56:32.400Z,14.20
2019-02-05T03:58:59.043Z,14.30
2019-02-05T04:01:25.619Z,14.20
2019-02-05T04:03:52.202Z,14.30
2019-02-05T04:06:18.829Z,14.20
2019-02-05T04:08:45.410Z,14.20
2019-02-05T04:11:11.992Z,14.20
2019-02-05T04:13:38.802Z,14.10
2019-02-05T04:16:05.382Z,14.20
2019-02-05T04:18:32.143Z,14.20
2019-02-05T04:20:58.772Z,14.10
2019-02-05T04:23:25.357Z,14.10
2019-02-05T04:25:51.941Z,14.40
2019-02-05T04:28:18.573Z,14.20
2019-02-05T04:30:45.242Z,14.10
2019-02-05T04:33:12.297Z,14.10
2019-02-05T04:35:39.128Z,14.10
2019-02-05T04:38:05.728Z,14.10
2019-02-05T04:40:32.370Z,14.10
2019-02-05T04:42:59.037Z,14.10
2019-02-05T04:45:33.677Z,14.10
2019-02-05T04:47:54.229Z,14.10
2019-02-05T04:50:21.739Z,14.10
2019-02-05T04:52:48.908Z,14.20
2019-02-05T04:55:15.504Z,14.10
2019-02-05T04:57:42.230Z,14.20
2019-02-05T05:00:08.822Z,14.10
2019-02-05T05:02:35.408Z,14.20
2019-02-05T05:05:02.044Z,14.10
2019-02-05T05:07:28.665Z,14.30
2019-02-05T05:09:55.246Z,14.10
2019-02-05T05:12:23.615Z,14.20
2019-02-05T05:14:50.194Z,14.20
2019-02-05T05:17:16.808Z,14.10
2019-02-05T05:19:43.466Z,14.10
2019-02-05T05:22:10.052Z,14.10
2019-02-05T05:24:36.704Z,14.20
2019-02-05T05:27:03.448Z,14.10
2019-02-05T05:29:33.085Z,14.20
2019-02-05T05:31:58.325Z,14.10
2019-02-05T05:34:24.949Z,14.10
2019-02-05T05:36:51.713Z,14.20
2019-02-05T05:39:18.320Z,14.20
2019-02-05T05:41:45.117Z,14.20
2019-02-05T05:44:11.688Z,14.20
2019-02-05T05:46:38.455Z,14.20
2019-02-05T05:49:05.130Z,14.20
2019-02-05T05:51:31.709Z,14.30
2019-02-05T05:53:58.481Z,14.30
2019-02-05T05:56:25.149Z,14.30
2019-02-05T05:58:51.742Z,14.20
2019-02-05T06:01:18.319Z,14.10
2019-02-05T06:03:44.947Z,14.10
2019-02-05T06:06:11.542Z,14.10
2019-02-05T06:08:38.195Z,14.10
2019-02-05T06:11:04.833Z,14.10
2019-02-05T06:13:31.419Z,14.10
2019-02-05T06:15:57.990Z,14.20
2019-02-05T06:18:24.685Z,14.20
2019-02-05T06:20:51.256Z,14.20
2019-02-05T06:23:17.831Z,14.20
2019-02-05T06:25:44.454Z,14.20
2019-02-05T06:28:11.172Z,14.20
2019-02-05T06:30:37.805Z,14.10
2019-02-05T06:33:04.524Z,14.20
2019-02-05T06:35:31.693Z,14.20
2019-02-05T06:37:58.482Z,14.10
2019-02-05T06:40:25.384Z,14.80
2019-02-05T06:42:51.965Z,14.20
2019-02-05T06:45:18.541Z,14.10
2019-02-05T06:47:45.397Z,14.20
2019-02-05T06:50:11.963Z,14.20
2019-02-05T06:52:38.540Z,14.20
2019-02-05T06:55:05.189Z,14.20
2019-02-05T06:57:32.050Z,14.20
2019-02-05T06:59:58.627Z,14.20
2019-02-05T07:02:25.276Z,14.10
2019-02-05T07:04:51.854Z,14.10
2019-02-05T07:07:18.450Z,14.20
2019-02-05T07:09:45.324Z,14.10
2019-02-05T07:12:13.015Z,14.10
2019-02-05T07:14:39.679Z,14.10
2019-02-05T07:17:06.967Z,14.10
2019-02-05T07:19:33.659Z,14.10
2019-02-05T07:22:00.257Z,14.20
2019-02-05T07:24:27.307Z,14.20
2019-02-05T07:26:53.941Z,14.20
2019-02-05T07:29:21.896Z,14.10
2019-02-05T07:31:48.533Z,14.20
2019-02-05T07:34:15.294Z,14.20
2019-02-05T07:36:42.248Z,14.30
2019-02-05T07:39:09.356Z,14.20
2019-02-05T07:41:37.968Z,14.20
2019-02-05T07:44:04.322Z,14.20
2019-02-05T07:46:31.063Z,14.20
2019-02-05T07:48:57.642Z,14.20
2019-02-05T07:51:24.267Z,14.20
2019-02-05T07:53:51.254Z,14.20
2019-02-05T07:56:17.901Z,14.30
2019-02-05T07:58:44.916Z,14.30
2019-02-05T08:01:12.045Z,14.30
2019-02-05T08:03:38.680Z,14.30
2019-02-05T08:06:05.261Z,14.30
2019-02-05T08:08:31.968Z,14.40
2019-02-05T08:10:58.555Z,14.30
2019-02-05T08:13:25.198Z,14.40
2019-02-05T08:15:51.933Z,14.30
2019-02-05T08:18:18.900Z,14.90
2019-02-05T08:20:45.543Z,14.40
2019-02-05T08:23:12.177Z,14.40
2019-02-05T08:25:39.158Z,14.40
2019-02-05T08:28:05.807Z,14.40
2019-02-05T08:30:32.498Z,14.40
2019-02-05T08:32:59.109Z,14.40
2019-02-05T08:35:25.695Z,14.40
2019-02-05T08:37:52.433Z,14.40
2019-02-05T08:40:19.101Z,14.40
2019-02-05T08:42:45.677Z,14.40
2019-02-05T08:45:14.246Z,14.40
2019-02-05T08:47:40.729Z,14.40
2019-02-05T08:50:07.696Z,14.40
2019-02-05T08:52:34.340Z,14.40
2019-02-05T08:55:01.017Z,14.40
2019-02-05T08:57:27.706Z,14.40
2019-02-05T08:59:54.438Z,14.40
2019-02-05T09:02:21.016Z,14.40
2019-02-05T09:04:47.649Z,14.40
2019-02-05T09:07:14.349Z,14.40
2019-02-05T09:09:41.519Z,14.40
2019-02-05T09:12:08.099Z,14.40
2019-02-05T09:14:34.732Z,14.40
2019-02-05T09:17:01.376Z,14.40
2019-02-05T09:19:27.949Z,14.40
2019-02-05T09:21:55.153Z,14.30
2019-02-05T09:24:21.806Z,14.40
2019-02-05T09:26:48.460Z,14.30
2019-02-05T09:29:15.403Z,14.20
2019-02-05T09:31:42.360Z,14.30
2019-02-05T09:34:08.936Z,14.30
2019-02-05T09:36:35.557Z,14.20
2019-02-05T09:39:02.243Z,14.10
2019-02-05T09:41:28.898Z,14.10
2019-02-05T09:43:55.552Z,14.10
2019-02-05T09:46:22.169Z,14.00
2019-02-05T09:48:48.901Z,14.00
2019-02-05T09:51:15.524Z,14.00
2019-02-05T09:53:42.391Z,13.90
2019-02-05T09:56:09.043Z,13.90
2019-02-05T09:58:35.745Z,13.90
2019-02-05T10:01:02.313Z,13.80
2019-02-05T10:03:28.899Z,13.40
2019-02-05T10:05:55.693Z,13.80
2019-02-05T10:08:22.463Z,13.70
2019-02-05T10:10:49.123Z,13.70
2019-02-05T10:13:15.831Z,13.70
2019-02-05T10:15:42.688Z,13.60
2019-02-05T10:18:09.263Z,13.70
2019-02-05T10:20:36.012Z,13.60
2019-02-05T10:23:02.587Z,13.70
2019-02-05T10:25:29.487Z,13.60
2019-02-05T10:27:56.233Z,13.60
2019-02-05T10:30:22.883Z,13.60
2019-02-05T10:32:49.556Z,13.50
2019-02-05T10:35:17.447Z,13.50
2019-02-05T10:37:44.060Z,13.50
2019-02-05T10:40:10.714Z,13.40
2019-02-05T10:42:37.347Z,13.40
2019-02-05T10:45:03.932Z,13.40
2019-02-05T10:47:30.512Z,13.30
2019-02-05T10:49:58.440Z,13.40
2019-02-05T10:52:25.011Z,13.30
2019-02-05T10:54:51.594Z,13.30
2019-02-05T10:57:18.703Z,13.30
2019-02-05T10:59:45.286Z,13.30
2019-02-05T11:02:11.943Z,13.30
2019-02-05T11:04:38.588Z,13.30
2019-02-05T11:07:05.186Z,13.30
2019-02-05T11:09:31.922Z,13.20
2019-02-05T11:11:58.580Z,13.20
2019-02-05T11:14:25.236Z,13.20
2019-02-05T11:16:51.891Z,13.20
2019-02-05T11:19:19.108Z,13.20
2019-02-05T11:21:45.775Z,13.20
2019-02-05T11:24:12.450Z,13.20
2019-02-05T11:26:39.071Z,13.10
2019-02-05T11:29:05.753Z,13.10
2019-02-05T11:31:32.589Z,13.10
2019-02-05T11:33:59.332Z,13.10
2019-02-05T11:36:25.905Z,13.00
2019-02-05T11:38:52.485Z,13.10
2019-02-05T11:41:19.482Z,13.00
2019-02-05T11:43:46.138Z,12.90
2019-02-05T11:46:12.721Z,13.00
2019-02-05T11:48:39.430Z,12.90
2019-02-05T11:51:06.140Z,13.40
2019-02-05T11:53:32.875Z,12.90
2019-02-05T11:55:59.618Z,12.80
2019-02-05T11:58:26.192Z,12.80
2019-02-05T12:00:53.175Z,12.80
2019-02-05T12:03:20.085Z,12.70
2019-02-05T12:05:46.747Z,12.70
2019-02-05T12:08:13.433Z,12.70
2019-02-05T12:10:40.090Z,12.60
2019-02-05T12:13:06.716Z,12.50
2019-02-05T12:15:33.374Z,13.20
2019-02-05T12:18:00.174Z,12.50
2019-02-05T12:20:26.991Z,12.60
2019-02-05T12:22:53.636Z,12.50
2019-02-05T12:25:20.541Z,12.50
2019-02-05T12:27:47.125Z,12.50
2019-02-05T12:30:13.711Z,12.40
2019-02-05T12:32:40.338Z,12.30
2019-02-05T12:35:06.953Z,12.40
2019-02-05T12:37:33.619Z,12.40
2019-02-05T12:40:00.610Z,12.40
2019-02-05T12:42:27.246Z,12.30
2019-02-05T12:44:54.205Z,12.30
2019-02-05T12:47:20.834Z,12.30
2019-02-05T12:49:47.476Z,12.20
2019-02-05T12:52:14.111Z,12.30
2019-02-05T12:54:41.857Z,12.30
2019-02-05T12:57:08.450Z,12.30
2019-02-05T12:59:35.062Z,12.20
2019-02-05T13:02:01.706Z,12.20
2019-02-05T13:04:28.298Z,12.30
2019-02-05T13:06:54.874Z,12.20
2019-02-05T13:09:21.518Z,12.20
2019-02-05T13:11:48.097Z,12.20
2019-02-05T13:14:14.687Z,12.30
2019-02-05T13:16:41.300Z,12.20
2019-02-05T13:19:07.877Z,12.20
2019-02-05T13:21:34.459Z,12.10
2019-02-05T13:24:01.877Z,12.10
2019-02-05T13:26:28.480Z,12.10
2019-02-05T13:28:55.069Z,12.10
2019-02-05T13:31:21.803Z,12.10
2019-02-05T13:33:48.383Z,12.10
2019-02-05T13:36:14.971Z,12.10
2019-02-05T13:38:41.815Z,12.10
2019-02-05T13:41:08.591Z,12.10
2019-02-05T13:43:35.453Z,12.00
2019-02-05T13:46:02.227Z,12.00
2019-02-05T13:48:28.879Z,12.00
2019-02-05T13:50:55.577Z,12.50
2019-02-05T13:53:22.201Z,12.00
2019-02-05T13:55:48.774Z,11.90
2019-02-05T13:58:15.351Z,11.90
2019-02-05T14:00:41.996Z,12.30
2019-02-05T14:03:08.949Z,11.90
2019-02-05T14:05:35.533Z,11.80
2019-02-05T14:08:02.242Z,11.80
2019-02-05T14:10:28.824Z,11.90
2019-02-05T14:12:55.502Z,11.80
2019-02-05T14:15:22.111Z,11.80
2019-02-05T14:17:49.760Z,11.80
2019-02-05T14:20:16.344Z,11.70
2019-02-05T14:22:43.410Z,11.70
2019-02-05T14:25:10.074Z,11.70
2019-02-05T14:27:36.647Z,12.30
2019-02-05T14:30:03.326Z,11.70
2019-02-05T14:32:30.794Z,11.70
2019-02-05T14:34:57.567Z,11.70
2019-02-05T14:37:24.255Z,12.20
2019-02-05T14:39:50.830Z,11.70
2019-02-05T14:42:17.751Z,11.70
2019-02-05T14:44:44.383Z,11.70
2019-02-05T14:47:10.959Z,11.60
2019-02-05T14:49:38.334Z,11.60
2019-02-05T14:52:05.059Z,11.60
2019-02-05T14:54:31.688Z,11.60
2019-02-05T14:56:58.254Z,11.70
2019-02-05T14:59:26.286Z,11.60
2019-02-05T15:01:52.871Z,11.60
2019-02-05T15:04:19.442Z,11.60
2019-02-05T15:06:46.065Z,11.70
2019-02-05T15:09:12.644Z,11.70
2019-02-05T15:11:39.251Z,11.70
2019-02-05T15:14:05.898Z,11.70
2019-02-05T15:16:32.482Z,11.70
2019-02-05T15:18:59.239Z,11.60
2019-02-05T15:21:25.856Z,11.70
2019-02-05T15:23:52.456Z,11.70
2019-02-05T15:26:19.023Z,11.70
2019-02-05T15:28:45.717Z,11.70
2019-02-05T15:31:12.450Z,11.70
2019-02-05T15:33:39.036Z,11.70
2019-02-05T15:36:05.718Z,11.70
2019-02-05T15:38:32.351Z,11.60
2019-02-05T15:40:58.941Z,11.70
2019-02-05T15:43:25.564Z,11.70
2019-02-05T15:45:52.148Z,11.60
2019-02-05T15:48:18.720Z,11.60
2019-02-05T15:50:45.366Z,11.60
2019-02-05T15:53:12.202Z,11.50
2019-02-05T15:55:39.154Z,11.60
2019-02-05T15:58:05.793Z,11.50
2019-02-05T16:00:34.633Z,11.60
2019-02-05T16:03:00.693Z,11.50
2019-02-05T16:05:27.321Z,11.70
2019-02-05T16:07:53.901Z,11.70
2019-02-05T16:10:20.482Z,11.50
2019-02-05T16:12:47.276Z,11.70
2019-02-05T16:15:14.142Z,11.60
2019-02-05T16:17:40.734Z,11.60
2019-02-05T16:20:07.409Z,11.80
2019-02-05T16:22:34.001Z,11.60
2019-02-05T16:25:00.584Z,11.70
2019-02-05T16:27:27.366Z,11.90
2019-02-05T16:29:53.968Z,12.10
2019-02-05T16:32:20.540Z,12.60
2019-02-05T16:34:47.641Z,12.50
2019-02-05T16:37:14.220Z,12.50
2019-02-05T16:39:40.799Z,12.50
2019-02-05T16:42:07.447Z,12.50
2019-02-05T16:44:34.026Z,12.60
2019-02-05T16:47:00.638Z,12.60
2019-02-05T16:49:27.298Z,12.60
2019-02-05T16:51:53.975Z,12.60
2019-02-05T16:54:20.938Z,12.70
2019-02-05T16:56:47.608Z,12.70
2019-02-05T16:59:14.259Z,12.80
2019-02-05T17:01:40.832Z,12.80
2019-02-05T17:04:07.457Z,12.70
2019-02-05T17:06:34.039Z,12.80
2019-02-05T17:09:00.614Z,12.90
2019-02-05T17:11:27.243Z,12.90
2019-02-05T17:13:54.401Z,12.80
2019-02-05T17:16:21.004Z,12.60
2019-02-05T17:18:47.716Z,12.90
2019-02-05T17:21:14.288Z,12.90
2019-02-05T17:23:41.097Z,12.90
2019-02-05T17:26:07.732Z,12.90
2019-02-05T17:28:34.303Z,12.90
2019-02-05T17:31:01.006Z,13.10
2019-02-05T17:33:28.085Z,13.00
2019-02-05T17:35:55.005Z,13.10
2019-02-05T17:38:21.594Z,13.10
2019-02-05T17:40:48.274Z,13.70
2019-02-05T17:43:14.918Z,13.10
2019-02-05T17:45:41.488Z,13.10
2019-02-05T17:48:08.129Z,13.20
2019-02-05T17:50:34.828Z,13.20
2019-02-05T17:53:01.780Z,13.30
2019-02-05T17:55:28.421Z,13.20
2019-02-05T17:57:55.008Z,13.20
2019-02-05T18:00:21.582Z,13.20
2019-02-05T18:02:51.523Z,13.20
2019-02-05T18:05:16.570Z,13.30
2019-02-05T18:07:44.264Z,13.30
2019-02-05T18:10:11.310Z,13.30
2019-02-05T18:12:38.026Z,13.30
2019-02-05T18:15:04.610Z,13.30
2019-02-05T18:17:31.231Z,13.30
2019-02-05T18:19:58.813Z,13.30
2019-02-05T18:22:25.391Z,13.40
2019-02-05T18:24:52.312Z,13.40
2019-02-05T18:27:18.895Z,13.40
2019-02-05T18:29:45.968Z,13.40
2019-02-05T18:32:13.263Z,13.40
2019-02-05T18:34:39.853Z,13.40
2019-02-05T18:37:06.428Z,13.40
2019-02-05T18:39:33.071Z,13.30
2019-02-05T18:41:59.664Z,13.50
2019-02-05T18:44:26.251Z,13.40
2019-02-05T18:46:52.910Z,13.40
2019-02-05T18:49:19.495Z,13.40
2019-02-05T18:51:48.236Z,13.40
2019-02-05T18:54:14.892Z,13.50
2019-02-05T18:56:41.467Z,13.50
2019-02-05T18:59:08.054Z,13.50
2019-02-05T19:01:34.673Z,13.40
2019-02-05T19:04:01.370Z,13.50
2019-02-05T19:06:27.945Z,13.50
2019-02-05T19:08:54.768Z,13.50
2019-02-05T19:11:21.352Z,13.60
2019-02-05T19:13:47.946Z,13.50
2019-02-05T19:16:14.606Z,13.70
2019-02-05T19:18:41.183Z,13.80
2019-02-05T19:21:07.781Z,13.70
2019-02-05T19:23:34.608Z,13.70
2019-02-05T19:26:01.194Z,13.80
2019-02-05T19:28:27.883Z,13.70
2019-02-05T19:30:54.517Z,13.80
2019-02-05T19:33:27.202Z,13.80
2019-02-05T19:35:49.735Z,13.80
